createdAt,value
2017-12-23T00:00:45.996Z,0
2017-12-23T00:01:54.681Z,0
2017-12-23T00:03:03.983Z,0
2017-12-23T00:04:13.247Z,0
2017-12-23T00:05:22.559Z,0
2017-12-23T00:06:32.043Z,0
2017-12-23T00:07:40.999Z,0
2017-12-23T00:08:50.459Z,0
2017-12-23T00:09:59.423Z,0
2017-12-23T00:11:08.877Z,0
2017-12-23T00:12:17.838Z,0
2017-12-23T00:13:26.800Z,0
2017-12-23T00:14:36.380Z,0
2017-12-23T00:15:45.345Z,0
2017-12-23T00:16:54.632Z,0
2017-12-23T00:18:04.157Z,0
2017-12-23T00:19:12.845Z,0
2017-12-23T00:20:22.146Z,0
2017-12-23T00:21:30.832Z,0
2017-12-23T00:22:40.087Z,0
2017-12-23T00:23:49.581Z,0
2017-12-23T00:24:58.792Z,0
2017-12-23T00:26:08.527Z,0
2017-12-23T00:27:17.997Z,0
2017-12-23T00:28:26.940Z,0
2017-12-23T00:29:36.424Z,0
2017-12-23T00:30:45.641Z,0
2017-12-23T00:31:54.619Z,0
2017-12-23T00:33:03.850Z,0
2017-12-23T00:34:12.803Z,0
2017-12-23T00:35:21.488Z,0
2017-12-23T00:36:30.957Z,0
2017-12-23T00:37:39.649Z,0
2017-12-23T00:38:49.122Z,0
2017-12-23T00:39:57.806Z,0
2017-12-23T00:41:07.082Z,0
2017-12-23T00:42:16.294Z,0
2017-12-23T00:43:25.493Z,0
2017-12-23T00:44:34.191Z,0
2017-12-23T00:45:43.144Z,0
2017-12-23T00:46:52.097Z,0
2017-12-23T00:48:01.063Z,0
2017-12-23T00:49:10.105Z,0
2017-12-23T00:50:18.814Z,0
2017-12-23T00:51:28.019Z,0
2017-12-23T00:52:36.953Z,0
2017-12-23T00:53:45.899Z,0
2017-12-23T00:54:54.599Z,0
2017-12-23T00:56:03.554Z,0
2017-12-23T00:57:12.764Z,0
2017-12-23T00:58:21.705Z,0
2017-12-23T00:59:30.916Z,0
2017-12-23T01:00:39.611Z,0
2017-12-23T01:01:48.551Z,0
2017-12-23T01:02:57.565Z,0
2017-12-23T01:04:06.508Z,0
2017-12-23T01:05:15.473Z,0
2017-12-23T01:06:24.422Z,0
2017-12-23T01:07:33.620Z,0
2017-12-23T01:08:43.347Z,0
2017-12-23T01:09:52.292Z,0
2017-12-23T01:11:02.024Z,0
2017-12-23T01:12:11.231Z,0
2017-12-23T01:13:20.173Z,0
2017-12-23T01:14:29.387Z,0
2017-12-23T01:15:38.351Z,0
2017-12-23T01:16:47.555Z,0
2017-12-23T01:17:56.493Z,0
2017-12-23T01:19:05.443Z,0
2017-12-23T01:20:14.915Z,0
2017-12-23T01:21:23.864Z,0
2017-12-23T01:22:33.335Z,0
2017-12-23T01:23:42.285Z,0
2017-12-23T01:24:50.958Z,0
2017-12-23T01:25:59.910Z,0
2017-12-23T01:27:08.851Z,0
2017-12-23T01:28:17.530Z,0
2017-12-23T01:29:26.753Z,0
2017-12-23T01:30:35.703Z,0
2017-12-23T01:31:44.665Z,0
2017-12-23T01:32:53.608Z,0
2017-12-23T01:34:02.810Z,0
2017-12-23T01:35:11.744Z,0
2017-12-23T01:36:20.692Z,0
2017-12-23T01:37:29.644Z,0
2017-12-23T01:38:39.112Z,0
2017-12-23T01:39:48.384Z,0
2017-12-23T01:40:57.340Z,0
2017-12-23T01:42:06.554Z,0
2017-12-23T01:43:15.238Z,0
2017-12-23T01:44:24.184Z,0
2017-12-23T01:45:33.120Z,0
2017-12-23T01:46:42.174Z,0
2017-12-23T01:47:51.110Z,0
2017-12-23T01:49:00.323Z,0
2017-12-23T01:50:09.005Z,0
2017-12-23T01:51:17.960Z,0
2017-12-23T01:52:26.904Z,0
2017-12-23T01:53:36.131Z,0
2017-12-23T01:54:44.798Z,0
2017-12-23T01:55:53.746Z,0
2017-12-23T01:57:02.692Z,0
2017-12-23T01:58:11.649Z,0
2017-12-23T01:59:20.860Z,0
2017-12-23T02:00:29.542Z,0
2017-12-23T02:01:38.770Z,0
2017-12-23T02:02:47.737Z,0
2017-12-23T02:03:56.698Z,0
2017-12-23T02:05:05.896Z,0
2017-12-23T02:06:15.105Z,0
2017-12-23T02:07:24.307Z,0
2017-12-23T02:08:33.768Z,0
2017-12-23T02:09:42.721Z,0
2017-12-23T02:10:51.704Z,0
2017-12-23T02:12:00.915Z,0
2017-12-23T02:13:10.386Z,0
2017-12-23T02:14:19.334Z,0
2017-12-23T02:15:28.269Z,0
2017-12-23T02:16:37.224Z,0
2017-12-23T02:17:46.686Z,0
2017-12-23T02:18:55.886Z,0
2017-12-23T02:20:04.831Z,0
2017-12-23T02:21:14.032Z,0
2017-12-23T02:22:23.499Z,0
2017-12-23T02:23:32.443Z,0
2017-12-23T02:24:41.387Z,0
2017-12-23T02:25:50.356Z,0
2017-12-23T02:26:59.825Z,0
2017-12-23T02:28:08.502Z,0
2017-12-23T02:29:17.967Z,0
2017-12-23T02:30:26.924Z,0
2017-12-23T02:31:36.419Z,0
2017-12-23T02:32:45.643Z,0
2017-12-23T02:33:54.860Z,0
2017-12-23T02:35:03.550Z,0
2017-12-23T02:36:12.757Z,0
2017-12-23T02:37:21.718Z,0
2017-12-23T02:38:31.183Z,0
2017-12-23T02:39:40.152Z,0
2017-12-23T02:40:49.362Z,0
2017-12-23T02:41:58.590Z,0
2017-12-23T02:43:07.806Z,0
2017-12-23T02:44:17.279Z,0
2017-12-23T02:45:26.489Z,0
2017-12-23T02:46:35.703Z,0
2017-12-23T02:47:45.170Z,0
2017-12-23T02:48:54.134Z,0
2017-12-23T02:50:03.345Z,0
2017-12-23T02:51:12.577Z,0
2017-12-23T02:52:22.057Z,0
2017-12-23T02:53:31.266Z,0
2017-12-23T02:54:40.234Z,0
2017-12-23T02:55:49.439Z,0
2017-12-23T02:56:58.660Z,0
2017-12-23T02:58:07.609Z,0
2017-12-23T02:59:16.823Z,0
2017-12-23T03:00:25.504Z,0
2017-12-23T03:01:34.192Z,0
2017-12-23T03:02:43.397Z,0
2017-12-23T03:03:52.409Z,0
2017-12-23T03:05:01.621Z,0
2017-12-23T03:06:10.840Z,0
2017-12-23T03:07:20.057Z,0
2017-12-23T03:08:29.061Z,0
2017-12-23T03:09:38.265Z,0
2017-12-23T03:10:47.204Z,0
2017-12-23T03:11:56.681Z,0
2017-12-23T03:13:05.621Z,0
2017-12-23T03:14:15.108Z,0
2017-12-23T03:15:23.787Z,0
2017-12-23T03:16:32.466Z,0
2017-12-23T03:17:41.139Z,0
2017-12-23T03:18:50.605Z,0
2017-12-23T03:19:59.563Z,0
2017-12-23T03:21:08.247Z,0
2017-12-23T03:22:17.459Z,0
2017-12-23T03:23:26.396Z,0
2017-12-23T03:24:35.612Z,0
2017-12-23T03:25:44.301Z,0
2017-12-23T03:26:53.266Z,0
2017-12-23T03:28:03.006Z,0
2017-12-23T03:29:11.984Z,0
2017-12-23T03:30:20.943Z,0
2017-12-23T03:31:30.164Z,0
2017-12-23T03:32:39.374Z,0
2017-12-23T03:33:48.581Z,0
2017-12-23T03:34:57.800Z,0
2017-12-23T03:36:07.390Z,0
2017-12-23T03:37:16.613Z,0
2017-12-23T03:38:25.300Z,0
2017-12-23T03:39:34.241Z,0
2017-12-23T03:40:43.717Z,0
2017-12-23T03:41:52.926Z,0
2017-12-23T03:43:01.610Z,0
2017-12-23T03:44:10.849Z,0
2017-12-23T03:45:20.587Z,0
2017-12-23T03:46:29.550Z,0
2017-12-23T03:47:38.491Z,0
2017-12-23T03:48:48.225Z,0
2017-12-23T03:49:57.446Z,0
2017-12-23T03:51:06.393Z,0
2017-12-23T03:52:15.607Z,0
2017-12-23T03:53:24.548Z,0
2017-12-23T03:54:34.275Z,0
2017-12-23T03:55:43.750Z,0
2017-12-23T03:56:52.434Z,0
2017-12-23T03:58:01.467Z,0
2017-12-23T03:59:10.929Z,0
2017-12-23T04:00:20.151Z,0
2017-12-23T04:01:29.421Z,0
2017-12-23T04:02:38.621Z,0
2017-12-23T04:03:47.563Z,0
2017-12-23T04:04:57.026Z,0
2017-12-23T04:06:05.720Z,0
2017-12-23T04:07:14.396Z,0
2017-12-23T04:08:23.346Z,0
2017-12-23T04:09:32.026Z,0
2017-12-23T04:10:40.711Z,0
2017-12-23T04:11:49.656Z,0
2017-12-23T04:12:58.339Z,0
2017-12-23T04:14:07.553Z,0
2017-12-23T04:15:16.760Z,0
2017-12-23T04:16:25.447Z,0
2017-12-23T04:17:34.388Z,0
2017-12-23T04:18:43.855Z,0
2017-12-23T04:19:52.817Z,0
2017-12-23T04:21:02.037Z,0
2017-12-23T04:22:10.722Z,0
2017-12-23T04:23:19.663Z,0
2017-12-23T04:24:28.334Z,0
2017-12-23T04:25:37.796Z,0
2017-12-23T04:26:47.264Z,0
2017-12-23T04:27:56.483Z,0
2017-12-23T04:29:05.950Z,0
2017-12-23T04:30:15.163Z,0
2017-12-23T04:31:23.848Z,0
2017-12-23T04:32:33.049Z,0
2017-12-23T04:33:42.510Z,0
2017-12-23T04:34:51.456Z,0
2017-12-23T04:36:00.918Z,0
2017-12-23T04:37:09.846Z,0
2017-12-23T04:38:19.059Z,0
2017-12-23T04:39:28.369Z,0
2017-12-23T04:40:37.050Z,0
2017-12-23T04:41:46.250Z,0
2017-12-23T04:42:55.958Z,0
2017-12-23T04:44:04.958Z,0
2017-12-23T04:45:13.901Z,0
2017-12-23T04:46:23.372Z,0
2017-12-23T04:47:32.308Z,0
2017-12-23T04:48:41.542Z,0
2017-12-23T04:49:50.999Z,0
2017-12-23T04:50:59.936Z,0
2017-12-23T04:52:09.139Z,0
2017-12-23T04:53:18.622Z,0
2017-12-23T04:54:27.813Z,0
2017-12-23T04:55:36.842Z,0
2017-12-23T04:56:46.040Z,0
2017-12-23T04:57:55.798Z,0
2017-12-23T04:59:04.486Z,0
2017-12-23T05:00:13.185Z,0
2017-12-23T05:01:22.122Z,0
2017-12-23T05:02:31.888Z,0
2017-12-23T05:03:41.111Z,0
2017-12-23T05:04:50.117Z,0
2017-12-23T05:05:58.818Z,0
2017-12-23T05:07:07.774Z,0
2017-12-23T05:08:16.988Z,0
2017-12-23T05:09:26.017Z,0
2017-12-23T05:10:35.491Z,0
2017-12-23T05:11:44.737Z,0
2017-12-23T05:12:54.198Z,0
2017-12-23T05:14:03.509Z,0
2017-12-23T05:15:12.456Z,0
2017-12-23T05:16:21.415Z,0
2017-12-23T05:17:30.612Z,0
2017-12-23T05:18:39.308Z,0
2017-12-23T05:19:48.261Z,0
2017-12-23T05:20:56.955Z,0
2017-12-23T05:22:06.169Z,0
2017-12-23T05:23:15.642Z,0
2017-12-23T05:24:25.117Z,0
2017-12-23T05:25:34.320Z,0
2017-12-23T05:26:43.290Z,0
2017-12-23T05:27:52.489Z,0
2017-12-23T05:29:01.251Z,0
2017-12-23T05:30:10.197Z,0
2017-12-23T05:31:19.792Z,0
2017-12-23T05:32:28.462Z,0
2017-12-23T05:33:37.136Z,0
2017-12-23T05:34:45.820Z,0
2017-12-23T05:35:54.496Z,0
2017-12-23T05:37:03.182Z,0
2017-12-23T05:38:12.391Z,0
2017-12-23T05:39:21.427Z,0
2017-12-23T05:40:30.367Z,0
2017-12-23T05:41:39.316Z,0
2017-12-23T05:42:49.052Z,0
2017-12-23T05:43:57.738Z,0
2017-12-23T05:45:06.674Z,0
2017-12-23T05:46:15.605Z,0
2017-12-23T05:47:24.813Z,0
2017-12-23T05:48:34.005Z,0
2017-12-23T05:49:42.676Z,0
2017-12-23T05:50:51.641Z,0
2017-12-23T05:52:00.331Z,0
2017-12-23T05:53:09.010Z,0
2017-12-23T05:54:18.028Z,0
2017-12-23T05:55:26.982Z,0
2017-12-23T05:56:35.924Z,0
2017-12-23T05:57:44.886Z,0
2017-12-23T05:58:53.835Z,0
2017-12-23T06:00:03.065Z,0
2017-12-23T06:01:12.036Z,0
2017-12-23T06:02:21.008Z,0
2017-12-23T06:03:30.231Z,0
2017-12-23T06:04:38.913Z,0
2017-12-23T06:05:48.443Z,0
2017-12-23T06:06:57.665Z,0
2017-12-23T06:08:06.883Z,0
2017-12-23T06:09:16.346Z,0
2017-12-23T06:10:25.827Z,0
2017-12-23T06:11:35.049Z,0
2017-12-23T06:12:43.748Z,0
2017-12-23T06:13:53.214Z,0
2017-12-23T06:15:02.430Z,0
2017-12-23T06:16:11.456Z,0
2017-12-23T06:17:20.142Z,0
2017-12-23T06:18:29.102Z,0
2017-12-23T06:19:38.050Z,0
2017-12-23T06:20:47.261Z,0
2017-12-23T06:21:56.210Z,0
2017-12-23T06:23:05.455Z,0
2017-12-23T06:24:14.162Z,0
2017-12-23T06:25:23.375Z,0
2017-12-23T06:26:32.318Z,0
2017-12-23T06:27:41.551Z,0
2017-12-23T06:28:50.496Z,0
2017-12-23T06:29:59.713Z,0
2017-12-23T06:31:08.459Z,0
2017-12-23T06:32:17.650Z,0
2017-12-23T06:33:27.143Z,0
2017-12-23T06:34:36.092Z,0
2017-12-23T06:35:45.558Z,0
2017-12-23T06:36:54.502Z,0
2017-12-23T06:38:03.712Z,0
2017-12-23T06:39:12.656Z,0
2017-12-23T06:40:22.207Z,0
2017-12-23T06:41:31.160Z,0
2017-12-23T06:42:40.357Z,0
2017-12-23T06:43:50.094Z,0
2017-12-23T06:44:59.336Z,0
2017-12-23T06:46:08.552Z,0
2017-12-23T06:47:17.499Z,0
2017-12-23T06:48:26.971Z,0
2017-12-23T06:49:35.985Z,0
2017-12-23T06:50:44.950Z,0
2017-12-23T06:51:54.413Z,0
2017-12-23T06:53:03.614Z,0
2017-12-23T06:54:12.325Z,0
2017-12-23T06:55:21.276Z,0
2017-12-23T06:56:29.969Z,0
2017-12-23T06:57:39.429Z,0
2017-12-23T06:58:48.406Z,0
2017-12-23T06:59:57.636Z,0
2017-12-23T07:01:06.865Z,0
2017-12-23T07:02:16.341Z,0
2017-12-23T07:03:25.542Z,0
2017-12-23T07:04:34.744Z,0
2017-12-23T07:05:44.018Z,0
2017-12-23T07:06:53.221Z,0
2017-12-23T07:08:02.180Z,0
2017-12-23T07:09:11.384Z,0
2017-12-23T07:10:20.318Z,0
2017-12-23T07:11:29.004Z,0
2017-12-23T07:12:38.483Z,0
2017-12-23T07:13:47.737Z,0
2017-12-23T07:14:56.952Z,0
2017-12-23T07:16:06.703Z,0
2017-12-23T07:17:15.906Z,0
2017-12-23T07:18:24.854Z,0
2017-12-23T07:19:33.538Z,4
2017-12-23T07:20:42.534Z,4
2017-12-23T07:21:52.271Z,4
2017-12-23T07:23:00.957Z,4
2017-12-23T07:24:09.898Z,0
2017-12-23T07:25:18.581Z,0
2017-12-23T07:26:27.520Z,4
2017-12-23T07:27:36.483Z,4
2017-12-23T07:28:45.680Z,4
2017-12-23T07:29:54.622Z,4
2017-12-23T07:31:03.819Z,8
2017-12-23T07:32:13.027Z,8
2017-12-23T07:33:22.226Z,8
2017-12-23T07:34:31.166Z,8
2017-12-23T07:35:40.885Z,8
2017-12-23T07:36:50.088Z,12
2017-12-23T07:37:59.033Z,12
2017-12-23T07:39:08.255Z,12
2017-12-23T07:40:16.941Z,12
2017-12-23T07:41:26.147Z,16
2017-12-23T07:42:35.611Z,16
2017-12-23T07:43:44.661Z,16
2017-12-23T07:44:54.322Z,20
2017-12-23T07:46:03.794Z,16
2017-12-23T07:47:13.264Z,20
2017-12-23T07:48:22.220Z,20
2017-12-23T07:49:31.520Z,20
2017-12-23T07:50:40.994Z,20
2017-12-23T07:51:50.460Z,24
2017-12-23T07:52:59.669Z,28
2017-12-23T07:54:08.875Z,32
2017-12-23T07:55:18.083Z,28
2017-12-23T07:56:27.022Z,40
2017-12-23T07:57:35.714Z,36
2017-12-23T07:58:44.922Z,40
2017-12-23T07:59:53.863Z,48
2017-12-23T08:01:03.336Z,44
2017-12-23T08:02:12.545Z,52
2017-12-23T08:03:21.505Z,60
2017-12-23T08:04:30.724Z,56
2017-12-23T08:05:39.661Z,52
2017-12-23T08:06:48.900Z,48
2017-12-23T08:07:58.369Z,52
2017-12-23T08:09:07.123Z,68
2017-12-23T08:10:16.074Z,64
2017-12-23T08:11:24.765Z,64
2017-12-23T08:12:33.983Z,56
2017-12-23T08:13:42.928Z,80
2017-12-23T08:14:52.684Z,100
2017-12-23T08:16:01.901Z,108
2017-12-23T08:17:11.105Z,124
2017-12-23T08:18:20.318Z,116
2017-12-23T08:19:29.576Z,112
2017-12-23T08:20:39.048Z,104
2017-12-23T08:21:48.000Z,112
2017-12-23T08:22:57.214Z,112
2017-12-23T08:24:06.701Z,108
2017-12-23T08:25:15.912Z,108
2017-12-23T08:26:25.121Z,104
2017-12-23T08:27:34.080Z,108
2017-12-23T08:28:43.545Z,88
2017-12-23T08:29:52.477Z,116
2017-12-23T08:31:01.675Z,148
2017-12-23T08:32:10.363Z,128
2017-12-23T08:33:19.839Z,112
2017-12-23T08:34:29.054Z,112
2017-12-23T08:35:38.522Z,124
2017-12-23T08:36:47.237Z,108
2017-12-23T08:37:56.258Z,100
2017-12-23T08:39:05.466Z,108
2017-12-23T08:40:14.140Z,116
2017-12-23T08:41:23.201Z,112
2017-12-23T08:42:32.155Z,120
2017-12-23T08:43:41.136Z,116
2017-12-23T08:44:50.093Z,116
2017-12-23T08:45:59.339Z,136
2017-12-23T08:47:08.564Z,128
2017-12-23T08:48:17.765Z,128
2017-12-23T08:49:26.725Z,120
2017-12-23T08:50:35.932Z,128
2017-12-23T08:51:45.151Z,120
2017-12-23T08:52:54.109Z,100
2017-12-23T08:54:03.420Z,136
2017-12-23T08:55:12.408Z,120
2017-12-23T08:56:21.351Z,132
2017-12-23T08:57:30.297Z,92
2017-12-23T08:58:39.506Z,92
2017-12-23T08:59:48.194Z,116
2017-12-23T09:00:57.412Z,92
2017-12-23T09:02:06.637Z,104
2017-12-23T09:03:16.095Z,124
2017-12-23T09:04:25.558Z,104
2017-12-23T09:05:34.246Z,120
2017-12-23T09:06:43.964Z,120
2017-12-23T09:07:53.441Z,160
2017-12-23T09:09:02.646Z,192
2017-12-23T09:10:12.118Z,208
2017-12-23T09:11:21.340Z,192
2017-12-23T09:12:30.058Z,160
2017-12-23T09:13:39.016Z,188
2017-12-23T09:14:47.969Z,188
2017-12-23T09:15:57.441Z,176
2017-12-23T09:17:06.671Z,164
2017-12-23T09:18:15.871Z,160
2017-12-23T09:19:25.344Z,172
2017-12-23T09:20:35.089Z,196
2017-12-23T09:21:44.317Z,232
2017-12-23T09:22:53.823Z,264
2017-12-23T09:24:03.576Z,192
2017-12-23T09:25:13.050Z,196
2017-12-23T09:26:22.531Z,204
2017-12-23T09:27:31.490Z,180
2017-12-23T09:28:40.444Z,236
2017-12-23T09:29:49.922Z,220
2017-12-23T09:30:58.611Z,220
2017-12-23T09:32:07.648Z,308
2017-12-23T09:33:16.875Z,332
2017-12-23T09:34:26.003Z,336
2017-12-23T09:35:34.679Z,352
2017-12-23T09:36:43.897Z,352
2017-12-23T09:37:52.835Z,272
2017-12-23T09:39:01.535Z,288
2017-12-23T09:40:10.743Z,236
2017-12-23T09:41:19.689Z,260
2017-12-23T09:42:28.676Z,284
2017-12-23T09:43:37.884Z,248
2017-12-23T09:44:47.085Z,288
2017-12-23T09:45:55.773Z,332
2017-12-23T09:47:04.988Z,288
2017-12-23T09:48:14.449Z,276
2017-12-23T09:49:23.674Z,340
2017-12-23T09:50:33.405Z,388
2017-12-23T09:51:42.602Z,464
2017-12-23T09:52:51.849Z,480
2017-12-23T09:54:01.063Z,428
2017-12-23T09:55:10.534Z,384
2017-12-23T09:56:19.490Z,412
2017-12-23T09:57:28.688Z,408
2017-12-23T09:58:37.637Z,396
2017-12-23T09:59:47.127Z,444
2017-12-23T10:00:55.814Z,376
2017-12-23T10:02:04.783Z,396
2017-12-23T10:03:13.463Z,380
2017-12-23T10:04:22.402Z,368
2017-12-23T10:05:31.082Z,292
2017-12-23T10:06:40.555Z,316
2017-12-23T10:07:49.237Z,264
2017-12-23T10:08:58.450Z,236
2017-12-23T10:10:07.404Z,336
2017-12-23T10:11:16.670Z,444
2017-12-23T10:12:26.132Z,388
2017-12-23T10:13:35.891Z,324
2017-12-23T10:14:45.098Z,300
2017-12-23T10:15:54.569Z,268
2017-12-23T10:17:03.527Z,240
2017-12-23T10:18:12.469Z,224
2017-12-23T10:19:21.427Z,300
2017-12-23T10:20:30.370Z,380
2017-12-23T10:21:39.836Z,352
2017-12-23T10:22:49.067Z,284
2017-12-23T10:23:58.535Z,252
2017-12-23T10:25:07.589Z,316
2017-12-23T10:26:17.136Z,316
2017-12-23T10:27:26.083Z,352
2017-12-23T10:28:35.613Z,328
2017-12-23T10:29:45.346Z,280
2017-12-23T10:30:54.569Z,264
2017-12-23T10:32:03.529Z,244
2017-12-23T10:33:12.733Z,244
2017-12-23T10:34:21.958Z,268
2017-12-23T10:35:31.163Z,272
2017-12-23T10:36:40.143Z,284
2017-12-23T10:37:49.346Z,300
2017-12-23T10:38:58.309Z,248
2017-12-23T10:40:07.523Z,228
2017-12-23T10:41:16.734Z,288
2017-12-23T10:42:25.958Z,384
2017-12-23T10:43:34.894Z,296
2017-12-23T10:44:43.849Z,260
2017-12-23T10:45:53.062Z,268
2017-12-23T10:47:02.286Z,300
2017-12-23T10:48:11.238Z,232
2017-12-23T10:49:20.984Z,264
2017-12-23T10:50:30.703Z,268
2017-12-23T10:51:39.396Z,280
2017-12-23T10:52:48.600Z,268
2017-12-23T10:53:57.647Z,272
2017-12-23T10:55:07.144Z,264
2017-12-23T10:56:16.099Z,236
2017-12-23T10:57:25.300Z,244
2017-12-23T10:58:34.538Z,300
2017-12-23T10:59:43.218Z,348
2017-12-23T11:00:52.431Z,280
2017-12-23T11:02:01.106Z,244
2017-12-23T11:03:10.604Z,252
2017-12-23T11:04:19.552Z,228
2017-12-23T11:05:29.276Z,280
2017-12-23T11:06:38.232Z,264
2017-12-23T11:07:47.174Z,272
2017-12-23T11:08:56.928Z,252
2017-12-23T11:10:05.880Z,328
2017-12-23T11:11:15.352Z,388
2017-12-23T11:12:24.041Z,364
2017-12-23T11:13:33.506Z,344
2017-12-23T11:14:42.191Z,388
2017-12-23T11:15:51.411Z,352
2017-12-23T11:17:00.411Z,308
2017-12-23T11:18:09.103Z,284
2017-12-23T11:19:17.837Z,292
2017-12-23T11:20:26.801Z,292
2017-12-23T11:21:35.740Z,268
2017-12-23T11:22:44.759Z,320
2017-12-23T11:23:54.000Z,292
2017-12-23T11:25:02.947Z,256
2017-12-23T11:26:12.417Z,308
2017-12-23T11:27:22.155Z,316
2017-12-23T11:28:31.734Z,240
2017-12-23T11:29:40.943Z,324
2017-12-23T11:30:49.619Z,512
2017-12-23T11:31:59.081Z,704
2017-12-23T11:33:08.280Z,756
2017-12-23T11:34:17.240Z,644
2017-12-23T11:35:26.247Z,476
2017-12-23T11:36:35.443Z,456
2017-12-23T11:37:44.638Z,496
2017-12-23T11:38:54.093Z,456
2017-12-23T11:40:03.039Z,436
2017-12-23T11:41:12.247Z,472
2017-12-23T11:42:21.448Z,496
2017-12-23T11:43:30.642Z,476
2017-12-23T11:44:40.108Z,496
2017-12-23T11:45:49.059Z,596
2017-12-23T11:46:57.993Z,564
2017-12-23T11:48:07.205Z,564
2017-12-23T11:49:16.938Z,580
2017-12-23T11:50:26.148Z,532
2017-12-23T11:51:34.843Z,548
2017-12-23T11:52:43.789Z,496
2017-12-23T11:53:53.266Z,448
2017-12-23T11:55:01.944Z,448
2017-12-23T11:56:10.619Z,456
2017-12-23T11:57:20.157Z,436
2017-12-23T11:58:29.122Z,432
2017-12-23T11:59:38.603Z,448
2017-12-23T12:00:47.575Z,440
2017-12-23T12:01:56.520Z,432
2017-12-23T12:03:05.307Z,412
2017-12-23T12:04:14.275Z,380
2017-12-23T12:05:22.957Z,376
2017-12-23T12:06:31.651Z,364
2017-12-23T12:07:40.329Z,376
2017-12-23T12:08:49.272Z,364
2017-12-23T12:09:58.476Z,336
2017-12-23T12:11:07.996Z,340
2017-12-23T12:12:16.939Z,340
2017-12-23T12:13:25.877Z,316
2017-12-23T12:14:35.337Z,312
2017-12-23T12:15:44.292Z,308
2017-12-23T12:16:52.983Z,300
2017-12-23T12:18:01.933Z,316
2017-12-23T12:19:11.124Z,332
2017-12-23T12:20:20.324Z,348
2017-12-23T12:21:29.530Z,348
2017-12-23T12:22:39.996Z,340
2017-12-23T12:23:49.711Z,344
2017-12-23T12:24:58.651Z,480
2017-12-23T12:26:07.606Z,504
2017-12-23T12:27:16.846Z,428
2017-12-23T12:28:25.493Z,464
2017-12-23T12:29:34.500Z,416
2017-12-23T12:30:43.176Z,396
2017-12-23T12:31:51.858Z,352
2017-12-23T12:33:00.540Z,376
2017-12-23T12:34:09.486Z,380
2017-12-23T12:35:18.170Z,372
2017-12-23T12:36:27.377Z,352
2017-12-23T12:37:36.592Z,376
2017-12-23T12:38:45.270Z,432
2017-12-23T12:39:54.215Z,488
2017-12-23T12:41:02.908Z,476
2017-12-23T12:42:11.588Z,412
2017-12-23T12:43:20.786Z,400
2017-12-23T12:44:29.990Z,388
2017-12-23T12:45:38.954Z,448
2017-12-23T12:46:47.895Z,420
2017-12-23T12:47:56.827Z,384
2017-12-23T12:49:05.507Z,392
2017-12-23T12:50:14.717Z,340
2017-12-23T12:51:24.188Z,364
2017-12-23T12:52:33.645Z,336
2017-12-23T12:53:42.593Z,336
2017-12-23T12:54:51.531Z,332
2017-12-23T12:56:00.470Z,344
2017-12-23T12:57:09.220Z,388
2017-12-23T12:58:18.410Z,392
2017-12-23T12:59:27.608Z,408
2017-12-23T13:00:36.547Z,400
2017-12-23T13:01:45.501Z,380
2017-12-23T13:02:54.443Z,348
2017-12-23T13:04:03.639Z,340
2017-12-23T13:05:12.318Z,328
2017-12-23T13:06:21.335Z,316
2017-12-23T13:07:30.535Z,300
2017-12-23T13:08:39.750Z,264
2017-12-23T13:09:48.965Z,248
2017-12-23T13:10:57.906Z,248
2017-12-23T13:12:06.845Z,240
2017-12-23T13:13:15.779Z,252
2017-12-23T13:14:24.463Z,292
2017-12-23T13:15:33.407Z,268
2017-12-23T13:16:42.100Z,248
2017-12-23T13:17:51.034Z,256
2017-12-23T13:18:59.714Z,224
2017-12-23T13:20:09.181Z,196
2017-12-23T13:21:18.114Z,208
2017-12-23T13:22:27.071Z,232
2017-12-23T13:23:36.122Z,264
2017-12-23T13:24:45.324Z,248
2017-12-23T13:25:54.261Z,240
2017-12-23T13:27:03.214Z,220
2017-12-23T13:28:11.914Z,228
2017-12-23T13:29:21.119Z,240
2017-12-23T13:30:30.062Z,224
2017-12-23T13:31:39.027Z,188
2017-12-23T13:32:47.703Z,204
2017-12-23T13:33:56.648Z,192
2017-12-23T13:35:05.947Z,188
2017-12-23T13:36:15.858Z,188
2017-12-23T13:37:24.807Z,216
2017-12-23T13:38:33.754Z,212
2017-12-23T13:39:42.436Z,204
2017-12-23T13:40:51.912Z,220
2017-12-23T13:42:00.597Z,240
2017-12-23T13:43:10.069Z,220
2017-12-23T13:44:18.785Z,184
2017-12-23T13:45:27.482Z,164
2017-12-23T13:46:36.412Z,156
2017-12-23T13:47:45.367Z,148
2017-12-23T13:48:54.046Z,144
2017-12-23T13:50:02.999Z,136
2017-12-23T13:51:12.037Z,160
2017-12-23T13:52:21.239Z,168
2017-12-23T13:53:30.201Z,196
2017-12-23T13:54:39.137Z,160
2017-12-23T13:55:48.065Z,164
2017-12-23T13:56:57.270Z,156
2017-12-23T13:58:06.489Z,152
2017-12-23T13:59:15.969Z,152
2017-12-23T14:00:25.191Z,136
2017-12-23T14:01:34.136Z,132
2017-12-23T14:02:43.078Z,128
2017-12-23T14:03:52.030Z,132
2017-12-23T14:05:00.986Z,132
2017-12-23T14:06:09.932Z,120
2017-12-23T14:07:19.183Z,124
2017-12-23T14:08:28.567Z,120
2017-12-23T14:09:37.507Z,116
2017-12-23T14:10:46.451Z,128
2017-12-23T14:11:55.920Z,124
2017-12-23T14:13:05.132Z,136
2017-12-23T14:14:13.813Z,120
2017-12-23T14:15:23.319Z,116
2017-12-23T14:16:32.539Z,108
2017-12-23T14:17:41.511Z,100
2017-12-23T14:18:51.256Z,108
2017-12-23T14:20:00.995Z,112
2017-12-23T14:21:10.723Z,112
2017-12-23T14:22:19.925Z,100
2017-12-23T14:23:28.923Z,100
2017-12-23T14:24:38.401Z,100
2017-12-23T14:25:47.607Z,116
2017-12-23T14:26:56.317Z,104
2017-12-23T14:28:05.012Z,88
2017-12-23T14:29:13.710Z,80
2017-12-23T14:30:22.653Z,72
2017-12-23T14:31:31.866Z,68
2017-12-23T14:32:40.825Z,64
2017-12-23T14:33:49.773Z,76
2017-12-23T14:34:59.258Z,108
2017-12-23T14:36:08.729Z,108
2017-12-23T14:37:17.411Z,104
2017-12-23T14:38:26.376Z,92
2017-12-23T14:39:35.847Z,80
2017-12-23T14:40:45.064Z,88
2017-12-23T14:41:54.004Z,104
2017-12-23T14:43:03.512Z,80
2017-12-23T14:44:12.225Z,64
2017-12-23T14:45:21.446Z,64
2017-12-23T14:46:30.117Z,56
2017-12-23T14:47:39.320Z,56
2017-12-23T14:48:48.542Z,56
2017-12-23T14:49:57.550Z,52
2017-12-23T14:51:06.776Z,52
2017-12-23T14:52:15.978Z,48
2017-12-23T14:53:24.658Z,48
2017-12-23T14:54:33.601Z,44
2017-12-23T14:55:42.546Z,48
2017-12-23T14:56:51.223Z,44
2017-12-23T14:58:00.168Z,40
2017-12-23T14:59:08.866Z,40
2017-12-23T15:00:18.073Z,36
2017-12-23T15:01:27.294Z,32
2017-12-23T15:02:36.515Z,28
2017-12-23T15:03:45.454Z,28
2017-12-23T15:04:54.672Z,24
2017-12-23T15:06:03.886Z,28
2017-12-23T15:07:12.593Z,24
2017-12-23T15:08:21.558Z,20
2017-12-23T15:09:31.039Z,24
2017-12-23T15:10:39.992Z,20
2017-12-23T15:11:48.969Z,20
2017-12-23T15:12:57.937Z,16
2017-12-23T15:14:07.475Z,16
2017-12-23T15:15:16.723Z,16
2017-12-23T15:16:26.713Z,12
2017-12-23T15:17:36.180Z,16
2017-12-23T15:18:45.128Z,16
2017-12-23T15:19:54.598Z,16
2017-12-23T15:21:04.366Z,16
2017-12-23T15:22:13.305Z,12
2017-12-23T15:23:22.241Z,16
2017-12-23T15:24:31.446Z,8
2017-12-23T15:25:40.385Z,12
2017-12-23T15:26:49.339Z,8
2017-12-23T15:27:58.547Z,8
2017-12-23T15:29:08.020Z,4
2017-12-23T15:30:16.978Z,4
2017-12-23T15:31:25.921Z,4
2017-12-23T15:32:34.876Z,8
2017-12-23T15:33:43.855Z,8
2017-12-23T15:34:52.822Z,4
2017-12-23T15:36:02.062Z,8
2017-12-23T15:37:11.017Z,4
2017-12-23T15:38:19.958Z,4
2017-12-23T15:39:28.907Z,4
2017-12-23T15:40:37.585Z,4
2017-12-23T15:41:46.544Z,0
2017-12-23T15:42:55.493Z,4
2017-12-23T15:44:04.695Z,4
2017-12-23T15:45:13.642Z,0
2017-12-23T15:46:22.858Z,4
2017-12-23T15:47:31.558Z,4
2017-12-23T15:48:41.032Z,4
2017-12-23T15:49:50.295Z,4
2017-12-23T15:50:58.927Z,0
2017-12-23T15:52:07.607Z,0
2017-12-23T15:53:16.315Z,0
2017-12-23T15:54:25.288Z,0
2017-12-23T15:55:33.971Z,0
2017-12-23T15:56:43.188Z,0
2017-12-23T15:57:52.154Z,0
2017-12-23T15:59:01.096Z,0
2017-12-23T16:00:10.292Z,0
2017-12-23T16:01:19.228Z,0
2017-12-23T16:02:28.183Z,0
2017-12-23T16:03:36.895Z,0
2017-12-23T16:04:45.589Z,0
2017-12-23T16:05:55.063Z,0
2017-12-23T16:07:04.544Z,0
2017-12-23T16:08:13.496Z,0
2017-12-23T16:09:23.087Z,0
2017-12-23T16:10:32.299Z,0
2017-12-23T16:11:41.514Z,0
2017-12-23T16:12:50.459Z,0
2017-12-23T16:13:59.692Z,0
2017-12-23T16:15:09.254Z,0
2017-12-23T16:16:18.477Z,0
2017-12-23T16:17:27.442Z,0
2017-12-23T16:18:36.696Z,0
2017-12-23T16:19:45.644Z,0
2017-12-23T16:20:54.606Z,0
2017-12-23T16:22:03.564Z,0
2017-12-23T16:23:12.251Z,0
2017-12-23T16:24:21.487Z,0
2017-12-23T16:25:30.953Z,0
2017-12-23T16:26:40.181Z,0
2017-12-23T16:27:49.130Z,0
2017-12-23T16:28:58.592Z,0
2017-12-23T16:30:07.582Z,0
2017-12-23T16:31:16.533Z,0